This is the latest recevied weather packets stored in our database for station/object KC3AWA. If no packets are shown the sender has not sent any weather packets the latest 10 day(s).
| Time | Temp. | Humidity | Pressure | Rain* | Wind** | Luminosity | Snow |
|---|---|---|---|---|---|---|---|
| 1777902122 | 15° C | 49% | 1010.7 hPa | 0 mm | - | 518 W/m² | - |
| 1777901821 | 15° C | 51% | 1010.5 hPa | 0 mm | - | 501 W/m² | - |
| 1777901518 | 14.44° C | 49% | 1010.7 hPa | 0 mm | - | 488 W/m² | - |
| 1777901215 | 14.44° C | 50% | 1010.6 hPa | 0 mm | - | 470 W/m² | - |
| 1777900913 | 13.89° C | 50% | 1010.7 hPa | 0 mm | - | 454 W/m² | - |
| 1777900610 | 13.89° C | 50% | 1010.7 hPa | 0 mm | - | 437 W/m² | - |
| 1777900307 | 14.44° C | 49% | 1010.7 hPa | 0 mm | - | 418 W/m² | - |
| 1777900003 | 13.89° C | 51% | 1010.7 hPa | 0 mm | - | 403 W/m² | - |
| 1777899700 | 13.89° C | 51% | 1010.6 hPa | 0 mm | - | 385 W/m² | - |
| 1777899398 | 13.89° C | 52% | 1010.7 hPa | 0 mm | - | 369 W/m² | - |
| 1777899095 | 13.33° C | 51% | 1010.9 hPa | 0 mm | - | 351 W/m² | - |
| 1777898792 | 13.33° C | 51% | 1010.7 hPa | 0 mm | - | 334 W/m² | - |
| 1777898490 | 13.33° C | 52% | 1010.9 hPa | 0 mm | - | 318 W/m² | - |
| 1777898187 | 12.78° C | 55% | 1010.7 hPa | 0 mm | - | 301 W/m² | - |
| 1777897884 | 12.78° C | 55% | 1010.7 hPa | 0 mm | - | 282 W/m² | - |
| 1777897580 | 12.22° C | 54% | 1010.8 hPa | 0 mm | - | 265 W/m² | - |
| 1777897276 | 11.67° C | 54% | 1010.7 hPa | 0 mm | - | 251 W/m² | - |
| 1777896972 | 11.67° C | 55% | 1010.7 hPa | 0 mm | - | 233 W/m² | - |
| 1777896669 | 11.67° C | 55% | 1010.7 hPa | 0 mm | - | 215 W/m² | - |
| 1777896366 | 11.11° C | 56% | 1010.7 hPa | 0 mm | - | 201 W/m² | - |
| 1777896064 | 11.11° C | 56% | 1010.5 hPa | 0 mm | - | 182 W/m² | - |
| 1777895762 | 10.56° C | 57% | 1010.7 hPa | 0 mm | - | 170 W/m² | - |
| 1777895459 | 10.56° C | 56% | 1010.6 hPa | 0 mm | - | 156 W/m² | - |
| 1777895157 | 10.56° C | 60% | 1010.8 hPa | 0 mm | - | 142 W/m² | - |
| 1777894853 | 10° C | 58% | 1010.5 hPa | 0 mm | - | 127 W/m² | - |
* Rain latest hour (hover to see other rain measurements)
** Current wind speed in m/s (hover to see current wind gust speed)